sensor_id;sensor_type;location;lat;lon;timestamp;P1;durP1;ratioP1;P2;durP2;ratioP2
37971;SDS011;23794;48.234;8.344;2023-06-10T00:00:23;4.25;;;3.63;;
37971;SDS011;23794;48.234;8.344;2023-06-10T00:02:50;4.68;;;3.45;;
37971;SDS011;23794;48.234;8.344;2023-06-10T00:05:17;6.50;;;3.72;;
37971;SDS011;23794;48.234;8.344;2023-06-10T00:07:47;7.20;;;3.90;;
37971;SDS011;23794;48.234;8.344;2023-06-10T00:10:14;5.40;;;3.75;;
37971;SDS011;23794;48.234;8.344;2023-06-10T00:12:40;4.28;;;3.88;;
37971;SDS011;23794;48.234;8.344;2023-06-10T00:15:08;4.97;;;3.63;;
37971;SDS011;23794;48.234;8.344;2023-06-10T00:17:36;6.63;;;3.83;;
37971;SDS011;23794;48.234;8.344;2023-06-10T00:20:07;4.78;;;3.90;;
37971;SDS011;23794;48.234;8.344;2023-06-10T00:22:37;4.38;;;3.97;;
37971;SDS011;23794;48.234;8.344;2023-06-10T00:25:05;4.63;;;3.90;;
37971;SDS011;23794;48.234;8.344;2023-06-10T00:27:33;5.60;;;4.38;;
37971;SDS011;23794;48.234;8.344;2023-06-10T00:30:10;8.13;;;4.50;;
37971;SDS011;23794;48.234;8.344;2023-06-10T00:32:37;5.18;;;4.68;;
37971;SDS011;23794;48.234;8.344;2023-06-10T00:35:04;5.60;;;3.88;;
37971;SDS011;23794;48.234;8.344;2023-06-10T00:37:32;5.07;;;4.30;;
37971;SDS011;23794;48.234;8.344;2023-06-10T00:40:02;5.03;;;3.53;;
37971;SDS011;23794;48.234;8.344;2023-06-10T00:42:31;7.15;;;4.57;;
37971;SDS011;23794;48.234;8.344;2023-06-10T00:44:58;7.55;;;4.00;;
37971;SDS011;23794;48.234;8.344;2023-06-10T00:47:25;5.63;;;4.50;;
37971;SDS011;23794;48.234;8.344;2023-06-10T00:49:52;4.30;;;3.72;;
37971;SDS011;23794;48.234;8.344;2023-06-10T00:52:20;5.32;;;3.67;;
37971;SDS011;23794;48.234;8.344;2023-06-10T00:54:50;5.03;;;4.20;;
37971;SDS011;23794;48.234;8.344;2023-06-10T00:57:16;5.95;;;4.28;;
37971;SDS011;23794;48.234;8.344;2023-06-10T00:59:45;4.90;;;4.40;;
37971;SDS011;23794;48.234;8.344;2023-06-10T01:02:14;5.05;;;4.13;;
37971;SDS011;23794;48.234;8.344;2023-06-10T01:04:41;6.82;;;4.82;;
37971;SDS011;23794;48.234;8.344;2023-06-10T01:07:17;4.82;;;4.00;;
37971;SDS011;23794;48.234;8.344;2023-06-10T01:09:54;4.78;;;4.07;;
37971;SDS011;23794;48.234;8.344;2023-06-10T01:12:34;5.28;;;4.03;;
37971;SDS011;23794;48.234;8.344;2023-06-10T01:15:06;5.35;;;4.60;;
37971;SDS011;23794;48.234;8.344;2023-06-10T01:17:37;4.40;;;3.63;;
37971;SDS011;23794;48.234;8.344;2023-06-10T01:20:30;6.72;;;3.97;;
37971;SDS011;23794;48.234;8.344;2023-06-10T01:22:59;6.55;;;4.43;;
37971;SDS011;23794;48.234;8.344;2023-06-10T01:25:27;5.65;;;4.72;;
37971;SDS011;23794;48.234;8.344;2023-06-10T01:28:43;5.25;;;4.40;;
37971;SDS011;23794;48.234;8.344;2023-06-10T01:33:35;4.20;;;3.80;;
37971;SDS011;23794;48.234;8.344;2023-06-10T01:36:05;6.95;;;4.72;;
37971;SDS011;23794;48.234;8.344;2023-06-10T01:38:39;6.57;;;4.38;;
37971;SDS011;23794;48.234;8.344;2023-06-10T01:41:08;6.45;;;4.97;;
37971;SDS011;23794;48.234;8.344;2023-06-10T01:43:37;9.55;;;5.13;;
37971;SDS011;23794;48.234;8.344;2023-06-10T01:46:06;4.97;;;4.30;;
37971;SDS011;23794;48.234;8.344;2023-06-10T01:48:33;5.53;;;4.57;;
37971;SDS011;23794;48.234;8.344;2023-06-10T01:51:00;5.40;;;4.90;;
37971;SDS011;23794;48.234;8.344;2023-06-10T01:53:26;5.18;;;4.35;;
37971;SDS011;23794;48.234;8.344;2023-06-10T01:55:53;5.18;;;4.57;;
37971;SDS011;23794;48.234;8.344;2023-06-10T01:58:20;6.32;;;5.25;;
37971;SDS011;23794;48.234;8.344;2023-06-10T02:00:47;6.47;;;5.10;;
37971;SDS011;23794;48.234;8.344;2023-06-10T02:03:13;6.50;;;5.15;;
37971;SDS011;23794;48.234;8.344;2023-06-10T02:05:41;6.00;;;4.30;;
37971;SDS011;23794;48.234;8.344;2023-06-10T02:08:08;6.20;;;5.45;;
37971;SDS011;23794;48.234;8.344;2023-06-10T02:10:34;5.97;;;5.38;;
37971;SDS011;23794;48.234;8.344;2023-06-10T02:13:01;5.68;;;5.03;;
37971;SDS011;23794;48.234;8.344;2023-06-10T02:15:27;6.32;;;4.75;;
37971;SDS011;23794;48.234;8.344;2023-06-10T02:17:54;7.18;;;5.40;;
37971;SDS011;23794;48.234;8.344;2023-06-10T02:20:22;7.15;;;5.20;;
37971;SDS011;23794;48.234;8.344;2023-06-10T02:22:48;9.20;;;5.63;;
37971;SDS011;23794;48.234;8.344;2023-06-10T02:25:15;5.63;;;5.13;;
37971;SDS011;23794;48.234;8.344;2023-06-10T02:27:42;7.03;;;5.55;;
37971;SDS011;23794;48.234;8.344;2023-06-10T02:30:12;19.20;;;6.60;;
37971;SDS011;23794;48.234;8.344;2023-06-10T02:32:39;8.18;;;5.50;;
37971;SDS011;23794;48.234;8.344;2023-06-10T02:35:09;8.23;;;5.70;;
37971;SDS011;23794;48.234;8.344;2023-06-10T02:37:39;8.00;;;5.25;;
37971;SDS011;23794;48.234;8.344;2023-06-10T02:40:06;18.60;;;6.60;;
37971;SDS011;23794;48.234;8.344;2023-06-10T02:42:34;12.85;;;6.00;;
37971;SDS011;23794;48.234;8.344;2023-06-10T02:45:02;13.27;;;6.00;;
37971;SDS011;23794;48.234;8.344;2023-06-10T02:47:37;10.73;;;5.75;;
37971;SDS011;23794;48.234;8.344;2023-06-10T02:50:05;8.82;;;5.30;;
37971;SDS011;23794;48.234;8.344;2023-06-10T02:52:38;14.13;;;5.03;;
37971;SDS011;23794;48.234;8.344;2023-06-10T02:55:05;8.48;;;5.32;;
37971;SDS011;23794;48.234;8.344;2023-06-10T02:57:33;6.03;;;5.43;;
37971;SDS011;23794;48.234;8.344;2023-06-10T03:00:02;10.45;;;6.05;;
37971;SDS011;23794;48.234;8.344;2023-06-10T03:02:36;16.15;;;5.75;;
37971;SDS011;23794;48.234;8.344;2023-06-10T03:05:06;8.02;;;5.78;;
37971;SDS011;23794;48.234;8.344;2023-06-10T03:07:40;8.05;;;5.90;;
37971;SDS011;23794;48.234;8.344;2023-06-10T03:10:07;7.57;;;6.07;;
37971;SDS011;23794;48.234;8.344;2023-06-10T03:12:36;9.48;;;6.90;;
37971;SDS011;23794;48.234;8.344;2023-06-10T03:15:03;6.07;;;5.47;;
37971;SDS011;23794;48.234;8.344;2023-06-10T03:17:31;6.65;;;5.63;;
37971;SDS011;23794;48.234;8.344;2023-06-10T03:19:59;8.10;;;5.93;;
37971;SDS011;23794;48.234;8.344;2023-06-10T03:22:26;8.48;;;6.10;;
37971;SDS011;23794;48.234;8.344;2023-06-10T03:25:11;6.45;;;5.80;;
37971;SDS011;23794;48.234;8.344;2023-06-10T03:27:43;7.28;;;5.82;;
37971;SDS011;23794;48.234;8.344;2023-06-10T03:30:13;8.57;;;6.20;;
37971;SDS011;23794;48.234;8.344;2023-06-10T03:32:41;6.13;;;5.50;;
37971;SDS011;23794;48.234;8.344;2023-06-10T03:35:11;6.85;;;5.82;;
37971;SDS011;23794;48.234;8.344;2023-06-10T03:37:38;6.55;;;5.95;;
37971;SDS011;23794;48.234;8.344;2023-06-10T03:40:05;6.78;;;5.97;;
37971;SDS011;23794;48.234;8.344;2023-06-10T03:42:34;6.57;;;5.97;;
37971;SDS011;23794;48.234;8.344;2023-06-10T03:45:02;8.35;;;5.85;;
37971;SDS011;23794;48.234;8.344;2023-06-10T03:47:33;10.23;;;6.65;;
37971;SDS011;23794;48.234;8.344;2023-06-10T03:50:03;7.28;;;6.53;;
37971;SDS011;23794;48.234;8.344;2023-06-10T03:52:31;8.32;;;6.40;;
37971;SDS011;23794;48.234;8.344;2023-06-10T03:54:58;7.90;;;6.03;;
37971;SDS011;23794;48.234;8.344;2023-06-10T03:57:25;8.07;;;5.95;;
37971;SDS011;23794;48.234;8.344;2023-06-10T03:59:53;6.53;;;5.78;;
37971;SDS011;23794;48.234;8.344;2023-06-10T04:02:20;7.13;;;6.40;;
37971;SDS011;23794;48.234;8.344;2023-06-10T04:04:47;8.35;;;5.70;;
37971;SDS011;23794;48.234;8.344;2023-06-10T04:07:14;6.35;;;5.75;;
37971;SDS011;23794;48.234;8.344;2023-06-10T04:09:41;6.78;;;5.38;;
37971;SDS011;23794;48.234;8.344;2023-06-10T04:12:08;7.68;;;6.22;;
37971;SDS011;23794;48.234;8.344;2023-06-10T04:14:36;12.25;;;7.28;;
37971;SDS011;23794;48.234;8.344;2023-06-10T04:17:05;10.30;;;5.97;;
37971;SDS011;23794;48.234;8.344;2023-06-10T04:19:36;9.30;;;6.57;;
37971;SDS011;23794;48.234;8.344;2023-06-10T04:22:03;9.88;;;5.90;;
37971;SDS011;23794;48.234;8.344;2023-06-10T04:24:32;7.53;;;6.75;;
37971;SDS011;23794;48.234;8.344;2023-06-10T04:26:59;6.45;;;5.85;;
37971;SDS011;23794;48.234;8.344;2023-06-10T04:29:27;16.17;;;7.50;;
37971;SDS011;23794;48.234;8.344;2023-06-10T04:31:54;10.43;;;6.70;;
37971;SDS011;23794;48.234;8.344;2023-06-10T04:34:21;11.30;;;7.57;;
37971;SDS011;23794;48.234;8.344;2023-06-10T04:36:47;8.30;;;6.53;;
37971;SDS011;23794;48.234;8.344;2023-06-10T04:39:14;11.98;;;6.60;;
37971;SDS011;23794;48.234;8.344;2023-06-10T04:41:43;7.95;;;7.15;;
37971;SDS011;23794;48.234;8.344;2023-06-10T04:44:09;11.52;;;7.03;;
37971;SDS011;23794;48.234;8.344;2023-06-10T04:46:37;9.77;;;6.97;;
37971;SDS011;23794;48.234;8.344;2023-06-10T04:49:04;8.10;;;7.30;;
37971;SDS011;23794;48.234;8.344;2023-06-10T04:51:32;7.88;;;6.75;;
37971;SDS011;23794;48.234;8.344;2023-06-10T04:54:00;8.98;;;6.63;;
37971;SDS011;23794;48.234;8.344;2023-06-10T04:56:30;7.63;;;6.60;;
37971;SDS011;23794;48.234;8.344;2023-06-10T04:58:57;8.68;;;6.22;;
37971;SDS011;23794;48.234;8.344;2023-06-10T05:01:24;8.52;;;6.75;;
37971;SDS011;23794;48.234;8.344;2023-06-10T05:03:51;6.72;;;6.10;;
37971;SDS011;23794;48.234;8.344;2023-06-10T05:06:17;8.95;;;6.28;;
37971;SDS011;23794;48.234;8.344;2023-06-10T05:08:44;7.20;;;6.55;;
37971;SDS011;23794;48.234;8.344;2023-06-10T05:11:11;7.22;;;6.53;;
37971;SDS011;23794;48.234;8.344;2023-06-10T05:13:38;7.75;;;6.95;;
37971;SDS011;23794;48.234;8.344;2023-06-10T05:16:06;8.43;;;7.03;;
37971;SDS011;23794;48.234;8.344;2023-06-10T05:18:33;9.68;;;7.10;;
37971;SDS011;23794;48.234;8.344;2023-06-10T05:21:01;8.00;;;6.95;;
37971;SDS011;23794;48.234;8.344;2023-06-10T05:23:29;11.88;;;7.40;;
37971;SDS011;23794;48.234;8.344;2023-06-10T05:25:56;7.30;;;6.57;;
37971;SDS011;23794;48.234;8.344;2023-06-10T05:28:24;7.50;;;6.80;;
37971;SDS011;23794;48.234;8.344;2023-06-10T05:30:51;8.10;;;6.78;;
37971;SDS011;23794;48.234;8.344;2023-06-10T05:33:17;8.93;;;6.93;;
37971;SDS011;23794;48.234;8.344;2023-06-10T05:35:44;8.07;;;6.78;;
37971;SDS011;23794;48.234;8.344;2023-06-10T05:38:12;7.18;;;6.40;;
37971;SDS011;23794;48.234;8.344;2023-06-10T05:40:41;8.52;;;5.85;;
37971;SDS011;23794;48.234;8.344;2023-06-10T05:43:07;7.93;;;6.20;;
37971;SDS011;23794;48.234;8.344;2023-06-10T05:45:35;8.65;;;5.55;;
37971;SDS011;23794;48.234;8.344;2023-06-10T05:48:03;7.38;;;6.32;;
37971;SDS011;23794;48.234;8.344;2023-06-10T05:50:29;7.13;;;6.35;;
37971;SDS011;23794;48.234;8.344;2023-06-10T05:52:56;7.05;;;5.28;;
37971;SDS011;23794;48.234;8.344;2023-06-10T05:55:23;7.57;;;5.90;;
37971;SDS011;23794;48.234;8.344;2023-06-10T05:57:58;11.57;;;7.65;;
37971;SDS011;23794;48.234;8.344;2023-06-10T06:00:26;6.25;;;5.18;;
37971;SDS011;23794;48.234;8.344;2023-06-10T06:02:53;7.78;;;6.45;;
37971;SDS011;23794;48.234;8.344;2023-06-10T06:05:20;7.13;;;5.53;;
37971;SDS011;23794;48.234;8.344;2023-06-10T06:07:47;5.90;;;5.40;;
37971;SDS011;23794;48.234;8.344;2023-06-10T06:10:14;7.25;;;5.45;;
37971;SDS011;23794;48.234;8.344;2023-06-10T06:12:45;7.57;;;5.97;;
37971;SDS011;23794;48.234;8.344;2023-06-10T06:15:11;7.25;;;5.78;;
37971;SDS011;23794;48.234;8.344;2023-06-10T06:17:38;7.57;;;5.47;;
37971;SDS011;23794;48.234;8.344;2023-06-10T06:20:05;6.93;;;5.70;;
37971;SDS011;23794;48.234;8.344;2023-06-10T06:22:33;5.85;;;5.00;;
37971;SDS011;23794;48.234;8.344;2023-06-10T06:25:00;8.00;;;6.20;;
37971;SDS011;23794;48.234;8.344;2023-06-10T06:27:26;7.07;;;5.82;;
37971;SDS011;23794;48.234;8.344;2023-06-10T06:29:54;5.78;;;5.25;;
37971;SDS011;23794;48.234;8.344;2023-06-10T06:32:21;7.05;;;6.25;;
37971;SDS011;23794;48.234;8.344;2023-06-10T06:34:50;7.60;;;5.60;;
37971;SDS011;23794;48.234;8.344;2023-06-10T06:37:23;6.85;;;5.45;;
37971;SDS011;23794;48.234;8.344;2023-06-10T06:39:59;8.75;;;5.72;;
37971;SDS011;23794;48.234;8.344;2023-06-10T06:42:29;6.20;;;5.60;;
37971;SDS011;23794;48.234;8.344;2023-06-10T06:45:01;6.07;;;5.47;;
37971;SDS011;23794;48.234;8.344;2023-06-10T06:47:28;5.82;;;5.32;;
37971;SDS011;23794;48.234;8.344;2023-06-10T06:49:55;8.02;;;6.35;;
37971;SDS011;23794;48.234;8.344;2023-06-10T06:52:22;7.38;;;6.68;;
37971;SDS011;23794;48.234;8.344;2023-06-10T06:54:48;7.15;;;5.75;;
37971;SDS011;23794;48.234;8.344;2023-06-10T06:57:39;7.90;;;6.53;;
37971;SDS011;23794;48.234;8.344;2023-06-10T07:00:05;6.68;;;6.03;;
37971;SDS011;23794;48.234;8.344;2023-06-10T07:02:34;6.22;;;5.63;;
37971;SDS011;23794;48.234;8.344;2023-06-10T07:05:01;6.07;;;5.38;;
37971;SDS011;23794;48.234;8.344;2023-06-10T07:07:32;6.10;;;5.50;;
37971;SDS011;23794;48.234;8.344;2023-06-10T07:09:59;6.20;;;5.30;;
37971;SDS011;23794;48.234;8.344;2023-06-10T07:12:25;7.82;;;5.15;;
37971;SDS011;23794;48.234;8.344;2023-06-10T07:14:52;6.28;;;5.40;;
37971;SDS011;23794;48.234;8.344;2023-06-10T07:17:19;7.03;;;5.78;;
37971;SDS011;23794;48.234;8.344;2023-06-10T07:19:46;5.82;;;5.28;;
37971;SDS011;23794;48.234;8.344;2023-06-10T07:22:12;5.82;;;5.32;;
37971;SDS011;23794;48.234;8.344;2023-06-10T07:24:39;5.82;;;5.22;;
37971;SDS011;23794;48.234;8.344;2023-06-10T07:27:06;5.72;;;5.22;;
37971;SDS011;23794;48.234;8.344;2023-06-10T07:29:33;6.45;;;5.47;;
37971;SDS011;23794;48.234;8.344;2023-06-10T07:32:03;6.60;;;5.40;;
37971;SDS011;23794;48.234;8.344;2023-06-10T07:34:30;6.47;;;5.47;;
37971;SDS011;23794;48.234;8.344;2023-06-10T07:36:57;6.07;;;5.47;;
37971;SDS011;23794;48.234;8.344;2023-06-10T07:39:23;8.25;;;6.18;;
37971;SDS011;23794;48.234;8.344;2023-06-10T07:41:50;7.05;;;5.32;;
37971;SDS011;23794;48.234;8.344;2023-06-10T07:44:20;11.18;;;5.55;;
37971;SDS011;23794;48.234;8.344;2023-06-10T07:46:46;5.68;;;5.00;;
37971;SDS011;23794;48.234;8.344;2023-06-10T07:49:13;7.55;;;5.43;;
37971;SDS011;23794;48.234;8.344;2023-06-10T07:54:16;5.88;;;5.18;;
37971;SDS011;23794;48.234;8.344;2023-06-10T07:56:43;5.53;;;5.03;;
37971;SDS011;23794;48.234;8.344;2023-06-10T07:59:09;7.55;;;4.85;;
37971;SDS011;23794;48.234;8.344;2023-06-10T08:01:36;5.00;;;4.60;;
37971;SDS011;23794;48.234;8.344;2023-06-10T08:04:05;5.53;;;5.03;;
37971;SDS011;23794;48.234;8.344;2023-06-10T08:06:33;5.95;;;5.20;;
37971;SDS011;23794;48.234;8.344;2023-06-10T08:08:59;4.60;;;4.20;;
37971;SDS011;23794;48.234;8.344;2023-06-10T08:11:26;4.93;;;4.43;;
37971;SDS011;23794;48.234;8.344;2023-06-10T08:13:54;6.90;;;4.70;;
37971;SDS011;23794;48.234;8.344;2023-06-10T08:16:21;5.57;;;5.00;;
37971;SDS011;23794;48.234;8.344;2023-06-10T08:18:48;5.40;;;4.68;;
37971;SDS011;23794;48.234;8.344;2023-06-10T08:21:20;5.82;;;4.95;;
37971;SDS011;23794;48.234;8.344;2023-06-10T08:23:47;7.05;;;4.97;;
37971;SDS011;23794;48.234;8.344;2023-06-10T08:26:14;5.55;;;4.72;;
37971;SDS011;23794;48.234;8.344;2023-06-10T08:28:41;5.63;;;4.75;;
37971;SDS011;23794;48.234;8.344;2023-06-10T08:31:08;6.05;;;4.78;;
37971;SDS011;23794;48.234;8.344;2023-06-10T08:33:35;6.03;;;5.43;;
37971;SDS011;23794;48.234;8.344;2023-06-10T08:36:01;6.65;;;5.68;;
37971;SDS011;23794;48.234;8.344;2023-06-10T08:38:28;6.22;;;5.35;;
37971;SDS011;23794;48.234;8.344;2023-06-10T08:40:56;6.60;;;5.80;;
37971;SDS011;23794;48.234;8.344;2023-06-10T08:45:59;6.63;;;5.22;;
37971;SDS011;23794;48.234;8.344;2023-06-10T08:48:30;5.60;;;5.03;;
37971;SDS011;23794;48.234;8.344;2023-06-10T08:51:02;6.22;;;5.60;;
37971;SDS011;23794;48.234;8.344;2023-06-10T08:53:31;5.95;;;5.35;;
37971;SDS011;23794;48.234;8.344;2023-06-10T08:56:00;5.57;;;5.07;;
37971;SDS011;23794;48.234;8.344;2023-06-10T08:58:31;5.68;;;5.18;;
37971;SDS011;23794;48.234;8.344;2023-06-10T09:00:59;6.15;;;5.53;;
37971;SDS011;23794;48.234;8.344;2023-06-10T09:03:26;10.90;;;5.65;;
37971;SDS011;23794;48.234;8.344;2023-06-10T09:05:54;5.38;;;4.88;;
37971;SDS011;23794;48.234;8.344;2023-06-10T09:08:23;7.63;;;5.95;;
37971;SDS011;23794;48.234;8.344;2023-06-10T09:10:49;6.32;;;5.60;;
37971;SDS011;23794;48.234;8.344;2023-06-10T09:13:16;6.55;;;5.30;;
37971;SDS011;23794;48.234;8.344;2023-06-10T09:15:44;6.07;;;5.22;;
37971;SDS011;23794;48.234;8.344;2023-06-10T09:18:12;5.82;;;5.25;;
37971;SDS011;23794;48.234;8.344;2023-06-10T09:20:39;5.80;;;5.20;;
37971;SDS011;23794;48.234;8.344;2023-06-10T09:23:06;5.68;;;5.18;;
37971;SDS011;23794;48.234;8.344;2023-06-10T09:25:34;5.50;;;5.00;;
37971;SDS011;23794;48.234;8.344;2023-06-10T09:28:12;6.28;;;5.32;;
37971;SDS011;23794;48.234;8.344;2023-06-10T09:30:40;5.47;;;4.60;;
37971;SDS011;23794;48.234;8.344;2023-06-10T09:33:11;5.68;;;5.18;;
37971;SDS011;23794;48.234;8.344;2023-06-10T09:35:45;5.10;;;4.47;;
37971;SDS011;23794;48.234;8.344;2023-06-10T09:38:15;5.55;;;5.05;;
37971;SDS011;23794;48.234;8.344;2023-06-10T09:40:53;6.00;;;5.40;;
37971;SDS011;23794;48.234;8.344;2023-06-10T09:43:21;6.05;;;5.10;;
37971;SDS011;23794;48.234;8.344;2023-06-10T09:45:48;5.70;;;5.10;;
37971;SDS011;23794;48.234;8.344;2023-06-10T09:48:21;8.85;;;5.65;;
37971;SDS011;23794;48.234;8.344;2023-06-10T09:50:49;6.25;;;5.20;;
37971;SDS011;23794;48.234;8.344;2023-06-10T09:53:16;5.63;;;5.13;;
37971;SDS011;23794;48.234;8.344;2023-06-10T09:55:43;6.07;;;5.03;;
37971;SDS011;23794;48.234;8.344;2023-06-10T09:58:10;6.03;;;4.75;;
37971;SDS011;23794;48.234;8.344;2023-06-10T10:00:37;5.70;;;5.13;;
37971;SDS011;23794;48.234;8.344;2023-06-10T10:03:04;6.63;;;4.53;;
37971;SDS011;23794;48.234;8.344;2023-06-10T10:05:32;5.00;;;4.60;;
37971;SDS011;23794;48.234;8.344;2023-06-10T10:07:59;5.43;;;4.93;;
37971;SDS011;23794;48.234;8.344;2023-06-10T10:10:26;5.55;;;5.00;;
37971;SDS011;23794;48.234;8.344;2023-06-10T10:12:54;6.32;;;5.28;;
37971;SDS011;23794;48.234;8.344;2023-06-10T10:15:28;5.35;;;4.85;;
37971;SDS011;23794;48.234;8.344;2023-06-10T10:20:35;5.90;;;5.32;;
37971;SDS011;23794;48.234;8.344;2023-06-10T10:23:07;5.57;;;5.00;;
37971;SDS011;23794;48.234;8.344;2023-06-10T10:25:38;5.47;;;4.95;;
37971;SDS011;23794;48.234;8.344;2023-06-10T10:30:39;5.50;;;5.00;;
37971;SDS011;23794;48.234;8.344;2023-06-10T10:33:27;6.20;;;4.90;;
37971;SDS011;23794;48.234;8.344;2023-06-10T10:35:57;5.50;;;5.00;;
37971;SDS011;23794;48.234;8.344;2023-06-10T10:38:24;5.20;;;4.55;;
37971;SDS011;23794;48.234;8.344;2023-06-10T10:40:51;5.72;;;5.13;;
37971;SDS011;23794;48.234;8.344;2023-06-10T10:43:18;5.38;;;4.88;;
37971;SDS011;23794;48.234;8.344;2023-06-10T10:45:46;5.60;;;5.10;;
37971;SDS011;23794;48.234;8.344;2023-06-10T10:48:23;4.30;;;3.90;;
37971;SDS011;23794;48.234;8.344;2023-06-10T10:50:57;5.97;;;5.38;;
37971;SDS011;23794;48.234;8.344;2023-06-10T10:53:24;5.78;;;4.72;;
37971;SDS011;23794;48.234;8.344;2023-06-10T10:56:04;4.57;;;4.18;;
37971;SDS011;23794;48.234;8.344;2023-06-10T10:58:33;5.00;;;4.38;;
37971;SDS011;23794;48.234;8.344;2023-06-10T11:01:07;5.43;;;4.53;;
37971;SDS011;23794;48.234;8.344;2023-06-10T11:03:44;5.35;;;4.35;;
37971;SDS011;23794;48.234;8.344;2023-06-10T11:06:14;4.35;;;3.95;;
37971;SDS011;23794;48.234;8.344;2023-06-10T11:11:23;6.13;;;4.32;;
37971;SDS011;23794;48.234;8.344;2023-06-10T11:14:13;7.38;;;4.30;;
37971;SDS011;23794;48.234;8.344;2023-06-10T11:16:52;6.30;;;4.88;;
37971;SDS011;23794;48.234;8.344;2023-06-10T11:19:35;8.30;;;4.25;;
37971;SDS011;23794;48.234;8.344;2023-06-10T11:22:05;4.40;;;4.00;;
37971;SDS011;23794;48.234;8.344;2023-06-10T11:24:32;4.63;;;4.22;;
37971;SDS011;23794;48.234;8.344;2023-06-10T11:27:15;4.50;;;4.10;;
37971;SDS011;23794;48.234;8.344;2023-06-10T11:32:43;4.05;;;3.70;;
37971;SDS011;23794;48.234;8.344;2023-06-10T11:35:11;4.38;;;3.95;;
37971;SDS011;23794;48.234;8.344;2023-06-10T11:37:38;5.20;;;4.22;;
37971;SDS011;23794;48.234;8.344;2023-06-10T11:40:05;5.13;;;4.10;;
37971;SDS011;23794;48.234;8.344;2023-06-10T11:42:33;4.38;;;3.97;;
37971;SDS011;23794;48.234;8.344;2023-06-10T11:44:59;4.78;;;4.18;;
37971;SDS011;23794;48.234;8.344;2023-06-10T11:47:29;4.00;;;3.60;;
37971;SDS011;23794;48.234;8.344;2023-06-10T11:49:56;4.20;;;3.80;;
37971;SDS011;23794;48.234;8.344;2023-06-10T11:52:27;4.50;;;4.10;;
37971;SDS011;23794;48.234;8.344;2023-06-10T11:54:55;4.93;;;4.35;;
37971;SDS011;23794;48.234;8.344;2023-06-10T11:57:22;3.83;;;3.53;;
37971;SDS011;23794;48.234;8.344;2023-06-10T11:59:48;4.57;;;4.18;;
37971;SDS011;23794;48.234;8.344;2023-06-10T12:02:16;5.45;;;3.50;;
37971;SDS011;23794;48.234;8.344;2023-06-10T12:04:43;7.10;;;3.42;;
37971;SDS011;23794;48.234;8.344;2023-06-10T12:07:16;4.93;;;3.78;;
37971;SDS011;23794;48.234;8.344;2023-06-10T12:09:44;3.60;;;3.30;;
37971;SDS011;23794;48.234;8.344;2023-06-10T12:12:13;3.22;;;2.92;;
37971;SDS011;23794;48.234;8.344;2023-06-10T12:14:56;4.00;;;3.60;;
37971;SDS011;23794;48.234;8.344;2023-06-10T12:20:01;3.58;;;3.00;;
37971;SDS011;23794;48.234;8.344;2023-06-10T12:22:40;3.60;;;3.30;;
37971;SDS011;23794;48.234;8.344;2023-06-10T12:25:09;3.47;;;3.05;;
37971;SDS011;23794;48.234;8.344;2023-06-10T12:27:38;3.30;;;3.00;;
37971;SDS011;23794;48.234;8.344;2023-06-10T12:30:07;3.72;;;3.42;;
37971;SDS011;23794;48.234;8.344;2023-06-10T12:32:41;3.53;;;3.22;;
37971;SDS011;23794;48.234;8.344;2023-06-10T12:35:10;4.38;;;3.22;;
37971;SDS011;23794;48.234;8.344;2023-06-10T12:37:40;4.18;;;3.70;;
37971;SDS011;23794;48.234;8.344;2023-06-10T12:40:09;6.70;;;3.53;;
37971;SDS011;23794;48.234;8.344;2023-06-10T12:42:36;5.10;;;3.42;;
37971;SDS011;23794;48.234;8.344;2023-06-10T12:45:04;3.58;;;3.13;;
37971;SDS011;23794;48.234;8.344;2023-06-10T12:47:34;4.70;;;3.57;;
37971;SDS011;23794;48.234;8.344;2023-06-10T12:50:05;3.72;;;2.75;;
37971;SDS011;23794;48.234;8.344;2023-06-10T12:52:32;3.00;;;2.72;;
37971;SDS011;23794;48.234;8.344;2023-06-10T12:54:59;7.45;;;2.95;;
37971;SDS011;23794;48.234;8.344;2023-06-10T12:57:27;3.60;;;2.75;;
37971;SDS011;23794;48.234;8.344;2023-06-10T12:59:53;5.78;;;2.97;;
37971;SDS011;23794;48.234;8.344;2023-06-10T13:02:22;3.97;;;2.90;;
37971;SDS011;23794;48.234;8.344;2023-06-10T13:04:50;3.17;;;2.90;;
37971;SDS011;23794;48.234;8.344;2023-06-10T13:07:17;3.15;;;2.85;;
37971;SDS011;23794;48.234;8.344;2023-06-10T13:09:44;3.00;;;2.75;;
37971;SDS011;23794;48.234;8.344;2023-06-10T13:12:15;3.17;;;2.60;;
37971;SDS011;23794;48.234;8.344;2023-06-10T13:14:47;2.72;;;2.50;;
37971;SDS011;23794;48.234;8.344;2023-06-10T13:17:15;3.13;;;2.83;;
37971;SDS011;23794;48.234;8.344;2023-06-10T13:19:42;3.42;;;2.78;;
37971;SDS011;23794;48.234;8.344;2023-06-10T13:22:08;4.40;;;2.97;;
37971;SDS011;23794;48.234;8.344;2023-06-10T13:24:35;4.63;;;3.70;;
37971;SDS011;23794;48.234;8.344;2023-06-10T13:27:05;3.63;;;3.10;;
37971;SDS011;23794;48.234;8.344;2023-06-10T13:29:32;2.70;;;2.50;;
37971;SDS011;23794;48.234;8.344;2023-06-10T13:31:59;11.15;;;3.67;;
37971;SDS011;23794;48.234;8.344;2023-06-10T13:34:26;4.00;;;2.60;;
37971;SDS011;23794;48.234;8.344;2023-06-10T13:36:52;3.50;;;2.85;;
37971;SDS011;23794;48.234;8.344;2023-06-10T13:39:19;3.47;;;2.80;;
37971;SDS011;23794;48.234;8.344;2023-06-10T13:41:46;3.78;;;2.90;;
37971;SDS011;23794;48.234;8.344;2023-06-10T13:44:12;3.00;;;2.70;;
37971;SDS011;23794;48.234;8.344;2023-06-10T13:46:39;3.03;;;2.60;;
37971;SDS011;23794;48.234;8.344;2023-06-10T13:49:06;2.72;;;2.38;;
37971;SDS011;23794;48.234;8.344;2023-06-10T13:51:33;10.93;;;3.28;;
37971;SDS011;23794;48.234;8.344;2023-06-10T13:53:59;2.88;;;2.47;;
37971;SDS011;23794;48.234;8.344;2023-06-10T13:56:26;3.63;;;2.50;;
37971;SDS011;23794;48.234;8.344;2023-06-10T13:58:53;3.10;;;2.35;;
37971;SDS011;23794;48.234;8.344;2023-06-10T14:01:20;4.75;;;2.75;;
37971;SDS011;23794;48.234;8.344;2023-06-10T14:03:47;3.00;;;2.50;;
37971;SDS011;23794;48.234;8.344;2023-06-10T14:06:14;3.58;;;2.80;;
37971;SDS011;23794;48.234;8.344;2023-06-10T14:08:44;2.80;;;2.60;;
37971;SDS011;23794;48.234;8.344;2023-06-10T14:11:11;3.05;;;2.50;;
37971;SDS011;23794;48.234;8.344;2023-06-10T14:13:38;3.08;;;2.70;;
37971;SDS011;23794;48.234;8.344;2023-06-10T14:16:05;3.20;;;2.90;;
37971;SDS011;23794;48.234;8.344;2023-06-10T14:18:32;2.88;;;2.45;;
37971;SDS011;23794;48.234;8.344;2023-06-10T14:20:59;3.97;;;2.88;;
37971;SDS011;23794;48.234;8.344;2023-06-10T14:23:25;4.40;;;2.80;;
37971;SDS011;23794;48.234;8.344;2023-06-10T14:25:52;3.00;;;2.75;;
37971;SDS011;23794;48.234;8.344;2023-06-10T14:28:19;3.08;;;2.70;;
37971;SDS011;23794;48.234;8.344;2023-06-10T14:30:45;2.58;;;2.38;;
37971;SDS011;23794;48.234;8.344;2023-06-10T14:33:12;2.55;;;2.35;;
37971;SDS011;23794;48.234;8.344;2023-06-10T14:35:39;2.95;;;2.28;;
37971;SDS011;23794;48.234;8.344;2023-06-10T14:38:05;2.60;;;2.40;;
37971;SDS011;23794;48.234;8.344;2023-06-10T14:40:33;2.97;;;2.45;;
37971;SDS011;23794;48.234;8.344;2023-06-10T14:43:00;3.95;;;2.40;;
37971;SDS011;23794;48.234;8.344;2023-06-10T14:45:30;2.50;;;2.30;;
37971;SDS011;23794;48.234;8.344;2023-06-10T14:48:00;2.65;;;2.45;;
37971;SDS011;23794;48.234;8.344;2023-06-10T14:50:27;3.47;;;2.63;;
37971;SDS011;23794;48.234;8.344;2023-06-10T14:52:54;3.25;;;2.53;;
37971;SDS011;23794;48.234;8.344;2023-06-10T14:55:20;2.72;;;2.53;;
37971;SDS011;23794;48.234;8.344;2023-06-10T14:57:49;4.57;;;2.92;;
37971;SDS011;23794;48.234;8.344;2023-06-10T15:00:16;3.00;;;2.80;;
37971;SDS011;23794;48.234;8.344;2023-06-10T15:05:15;3.58;;;3.05;;
37971;SDS011;23794;48.234;8.344;2023-06-10T15:07:42;3.08;;;2.67;;
37971;SDS011;23794;48.234;8.344;2023-06-10T15:10:09;3.13;;;2.90;;
37971;SDS011;23794;48.234;8.344;2023-06-10T15:12:36;3.15;;;2.60;;
37971;SDS011;23794;48.234;8.344;2023-06-10T15:15:03;3.08;;;2.78;;
37971;SDS011;23794;48.234;8.344;2023-06-10T15:17:29;3.15;;;2.85;;
37971;SDS011;23794;48.234;8.344;2023-06-10T15:19:56;2.80;;;2.60;;